createdAt,value
2022-11-01T00:00:10.556Z,98171.25
2022-11-01T00:03:15.711Z,98167.97
2022-11-01T00:06:20.243Z,98169.88
2022-11-01T00:09:25.148Z,98167.19
2022-11-01T00:12:31.877Z,98157.53
2022-11-01T00:15:38.073Z,98158.84
2022-11-01T00:18:43.211Z,98160.72
2022-11-01T00:21:48.847Z,98150.78
2022-11-01T00:24:54.993Z,98141.91
2022-11-01T00:27:59.962Z,98143.56
2022-11-01T00:31:10.233Z,98148.94
2022-11-01T00:34:18.059Z,98140.59
2022-11-01T00:37:23.493Z,98145.44
2022-11-01T00:40:28.993Z,98142.75
2022-11-01T00:43:34.763Z,98153.25
2022-11-01T00:46:41.716Z,98154.53
2022-11-01T00:49:46.588Z,98150.81
2022-11-01T00:52:51.525Z,98154.59
2022-11-01T00:56:01.221Z,98158.03
2022-11-01T00:59:07.279Z,98159.06
2022-11-01T01:02:13.866Z,98150.63
2022-11-01T01:05:22.079Z,98153.53
2022-11-01T01:08:27.992Z,98146.13
2022-11-01T01:11:33.016Z,98144.41
2022-11-01T01:14:38.068Z,98148.91
2022-11-01T01:17:47.585Z,98144.28
2022-11-01T01:20:53.060Z,98140.72
2022-11-01T01:23:57.944Z,98136.88
2022-11-01T01:27:03.740Z,98134.41
2022-11-01T01:30:12.102Z,98137.09
2022-11-01T01:33:18.910Z,98135.72
2022-11-01T01:36:23.754Z,98134.66
2022-11-01T01:39:28.778Z,98128.28
2022-11-01T01:42:35.497Z,98127.25
2022-11-01T01:45:42.069Z,98122.47
2022-11-01T01:48:53.326Z,98120.34
2022-11-01T01:51:58.373Z,98120.09
2022-11-01T01:55:08.652Z,98122.28
2022-11-01T01:58:15.749Z,98129.56
2022-11-01T02:01:20.939Z,98119.06
2022-11-01T02:04:32.757Z,98133.63
2022-11-01T02:07:37.598Z,98143.28
2022-11-01T02:10:43.852Z,98139.81
2022-11-01T02:13:49.194Z,98134.94
2022-11-01T02:17:05.592Z,98142.50
2022-11-01T02:20:48.382Z,98133.03
2022-11-01T02:24:10.230Z,98135.00
2022-11-01T02:27:25.429Z,98127.44
2022-11-01T02:30:41.829Z,98124.22
2022-11-01T02:33:54.106Z,98126.13
2022-11-01T02:37:03.850Z,98135.50
2022-11-01T02:40:11.428Z,98132.38
2022-11-01T02:43:21.381Z,98132.38
2022-11-01T02:46:47.067Z,98133.63
2022-11-01T02:49:55.992Z,98135.19
2022-11-01T02:53:02.841Z,98146.22
2022-11-01T02:56:08.228Z,98160.69
2022-11-01T02:59:19.855Z,98163.66
2022-11-01T03:02:39.904Z,98148.25
2022-11-01T03:05:54.388Z,98137.50
2022-11-01T03:09:02.529Z,98135.31
2022-11-01T03:12:12.652Z,98147.69
2022-11-01T03:15:23.450Z,98143.41
2022-11-01T03:18:34.361Z,98143.41
2022-11-01T03:21:45.229Z,98159.03
2022-11-01T03:24:54.328Z,98145.31
2022-11-01T03:28:01.023Z,98164.66
2022-11-01T03:31:11.544Z,98165.94
2022-11-01T03:34:19.353Z,98168.09
2022-11-01T03:37:27.624Z,98173.16
2022-11-01T03:40:33.792Z,98178.78
2022-11-01T03:43:39.791Z,98182.78
2022-11-01T03:46:45.799Z,98184.91
2022-11-01T03:49:50.611Z,98191.81
2022-11-01T03:52:58.474Z,98194.81
2022-11-01T03:56:03.216Z,98203.41
2022-11-01T03:59:08.441Z,98213.06
2022-11-01T04:02:13.427Z,98216.03
2022-11-01T04:05:19.067Z,98220.06
2022-11-01T04:08:25.128Z,98218.69
2022-11-01T04:11:30.011Z,98225.38
2022-11-01T04:14:51.232Z,98232.38
2022-11-01T04:18:22.339Z,98229.38
2022-11-01T04:21:31.363Z,98217.00
2022-11-01T04:24:37.719Z,98219.44
2022-11-01T04:27:42.202Z,98229.09
2022-11-01T04:30:46.898Z,98231.75
2022-11-01T04:33:51.916Z,98229.56
2022-11-01T04:36:56.843Z,98234.06
2022-11-01T04:40:03.281Z,98232.84
2022-11-01T04:43:08.270Z,98225.41
2022-11-01T04:46:13.956Z,98239.06
2022-11-01T04:49:19.230Z,98254.50
2022-11-01T04:52:24.077Z,98262.34
2022-11-01T04:55:30.696Z,98267.56
2022-11-01T04:58:43.062Z,98274.38
2022-11-01T05:01:50.619Z,98272.06
2022-11-01T05:04:55.558Z,98271.50
2022-11-01T05:08:04.277Z,98278.88
2022-11-01T05:11:10.891Z,98288.03
2022-11-01T05:14:15.828Z,98294.06
2022-11-01T05:17:20.765Z,98313.06
2022-11-01T05:20:27.146Z,98321.50
2022-11-01T05:23:31.755Z,98321.63
2022-11-01T05:26:37.925Z,98312.91
2022-11-01T05:29:43.433Z,98320.31
2022-11-01T05:32:48.129Z,98309.91
2022-11-01T05:35:53.009Z,98286.59
2022-11-01T05:38:58.639Z,98267.63
2022-11-01T05:42:04.717Z,98282.41
2022-11-01T05:45:10.442Z,98284.00
2022-11-01T05:48:15.094Z,98301.63
2022-11-01T05:51:20.421Z,98260.00
2022-11-01T05:54:25.736Z,98314.22
2022-11-01T05:57:33.560Z,98323.84
2022-11-01T06:00:40.857Z,98308.00
2022-11-01T06:03:45.268Z,98300.81
2022-11-01T06:06:50.101Z,98301.19
2022-11-01T06:09:54.787Z,98317.41
2022-11-01T06:13:01.481Z,98314.69
2022-11-01T06:16:08.078Z,98323.38
2022-11-01T06:19:12.993Z,98333.69
2022-11-01T06:22:18.409Z,98328.00
2022-11-01T06:25:23.656Z,98334.19
2022-11-01T06:28:30.136Z,98334.28
2022-11-01T06:31:35.416Z,98331.78
2022-11-01T06:34:42.472Z,98322.97
2022-11-01T06:37:49.690Z,98327.28
2022-11-01T06:40:54.946Z,98325.47
2022-11-01T06:44:01.192Z,98333.88
2022-11-01T06:47:05.915Z,98342.53
2022-11-01T06:50:11.127Z,98357.97
2022-11-01T06:53:16.093Z,98354.97
2022-11-01T06:56:21.263Z,98371.16
2022-11-01T06:59:29.785Z,98394.03
2022-11-01T07:02:34.636Z,98395.00
2022-11-01T07:05:40.684Z,98393.00
2022-11-01T07:08:45.174Z,98396.28
2022-11-01T07:11:49.962Z,98404.97
2022-11-01T07:14:56.807Z,98409.03
2022-11-01T07:18:04.242Z,98404.22
2022-11-01T07:21:09.875Z,98403.84
2022-11-01T07:24:14.630Z,98387.66
2022-11-01T07:27:20.671Z,98388.38
2022-11-01T07:30:26.972Z,98396.13
2022-11-01T07:33:33.958Z,98404.13
2022-11-01T07:36:38.973Z,98404.56
2022-11-01T07:39:43.754Z,98423.59
2022-11-01T07:42:48.734Z,98428.63
2022-11-01T07:45:55.210Z,98420.63
2022-11-01T07:49:00.778Z,98422.97
2022-11-01T07:52:05.688Z,98427.91
2022-11-01T07:55:11.808Z,98415.59
2022-11-01T07:58:18.035Z,98415.72
2022-11-01T08:01:24.775Z,98425.03
2022-11-01T08:04:31.395Z,98419.56
2022-11-01T08:07:40.465Z,98421.38
2022-11-01T08:10:45.372Z,98434.41
2022-11-01T08:13:50.171Z,98433.59
2022-11-01T08:17:00.886Z,98446.03
2022-11-01T08:20:05.927Z,98454.94
2022-11-01T08:23:11.406Z,98455.03
2022-11-01T08:26:16.514Z,98458.56
2022-11-01T08:29:21.838Z,98466.56
2022-11-01T08:32:29.247Z,98468.25
2022-11-01T08:35:35.114Z,98480.41
2022-11-01T08:38:39.810Z,98482.47
2022-11-01T08:41:44.932Z,98483.50
2022-11-01T08:44:49.900Z,98480.69
2022-11-01T08:48:01.892Z,98488.69
2022-11-01T08:51:06.940Z,98492.22
2022-11-01T08:54:12.547Z,98484.91
2022-11-01T08:57:17.825Z,98492.91
2022-11-01T09:00:22.415Z,98473.25
2022-11-01T09:03:28.828Z,98473.06
2022-11-01T09:06:36.368Z,98492.91
2022-11-01T09:09:41.570Z,98494.22
2022-11-01T09:12:46.445Z,98482.59
2022-11-01T09:15:51.986Z,98497.69
2022-11-01T09:19:02.022Z,98488.50
2022-11-01T09:22:10.562Z,98497.13
2022-11-01T09:25:18.235Z,98502.59
2022-11-01T09:28:23.471Z,98504.59
2022-11-01T09:31:28.852Z,98500.13
2022-11-01T09:34:40.347Z,98508.69
2022-11-01T09:38:04.487Z,98505.06
2022-11-01T09:41:48.593Z,98494.81
2022-11-01T09:44:57.748Z,98500.13
2022-11-01T09:48:06.256Z,98492.19
2022-11-01T09:51:19.376Z,98508.28
2022-11-01T09:54:27.018Z,98507.28
2022-11-01T09:57:38.040Z,98495.75
2022-11-01T10:00:51.939Z,98509.25
2022-11-01T10:04:16.131Z,98517.72
2022-11-01T10:07:30.063Z,98509.38
2022-11-01T10:10:41.289Z,98518.94
2022-11-01T10:13:54.852Z,98520.41
2022-11-01T10:17:09.085Z,98516.53
2022-11-01T10:20:15.662Z,98515.44
2022-11-01T10:23:38.989Z,98517.81
2022-11-01T10:26:45.844Z,98516.38
2022-11-01T10:29:57.903Z,98525.28
2022-11-01T10:33:18.698Z,98521.28
2022-11-01T10:36:29.669Z,98516.91
2022-11-01T10:40:01.318Z,98511.94
2022-11-01T10:43:15.385Z,98516.72
2022-11-01T10:46:26.930Z,98512.72
2022-11-01T10:53:04.003Z,98521.84
2022-11-01T10:56:13.877Z,98521.84
2022-11-01T10:59:22.677Z,98522.81
2022-11-01T11:02:30.845Z,98527.75
2022-11-01T11:05:35.807Z,98524.88
2022-11-01T11:08:43.118Z,98526.63
2022-11-01T11:11:51.968Z,98525.81
2022-11-01T11:15:01.876Z,98528.69
2022-11-01T11:18:21.617Z,98520.38
2022-11-01T11:21:28.234Z,98525.53
2022-11-01T11:24:36.601Z,98532.03
2022-11-01T11:27:47.753Z,98529.34
2022-11-01T11:30:52.764Z,98526.91
2022-11-01T11:34:01.653Z,98532.50
2022-11-01T11:37:08.884Z,98526.13
2022-11-01T11:40:22.965Z,98529.44
2022-11-01T11:43:35.066Z,98526.25
2022-11-01T11:46:39.917Z,98531.66
2022-11-01T11:49:45.066Z,98527.59
2022-11-01T11:52:52.163Z,98528.38
2022-11-01T11:56:00.048Z,98534.84
2022-11-01T11:59:12.674Z,98531.03
2022-11-01T12:02:22.278Z,98537.09
2022-11-01T12:05:29.057Z,98540.69
2022-11-01T12:08:45.188Z,98536.75
2022-11-01T12:11:50.133Z,98551.22
2022-11-01T12:14:56.882Z,98550.28
2022-11-01T12:18:15.809Z,98539.13
2022-11-01T12:21:25.759Z,98540.16
2022-11-01T12:24:38.340Z,98537.91
2022-11-01T12:27:51.151Z,98537.69
2022-11-01T12:31:05.545Z,98543.63
2022-11-01T12:34:20.142Z,98541.56
2022-11-01T12:37:30.003Z,98541.66
2022-11-01T12:40:38.673Z,98547.25
2022-11-01T12:43:56.489Z,98556.06
2022-11-01T12:47:08.617Z,98554.75
2022-11-01T12:50:21.749Z,98547.16
2022-11-01T12:53:30.430Z,98544.41
2022-11-01T12:56:36.001Z,98553.84
2022-11-01T12:59:41.075Z,98551.00
2022-11-01T13:03:09.665Z,98547.69
2022-11-01T13:06:30.959Z,98553.94
2022-11-01T13:09:47.525Z,98549.81
2022-11-01T13:13:00.852Z,98545.13
2022-11-01T13:16:11.801Z,98544.47
2022-11-01T13:19:23.978Z,98542.47
2022-11-01T13:22:37.753Z,98539.25
2022-11-01T13:25:49.348Z,98540.16
2022-11-01T13:29:09.131Z,98533.94
2022-11-01T13:32:22.237Z,98537.03
2022-11-01T13:35:56.392Z,98545.91
2022-11-01T13:39:15.343Z,98541.47
2022-11-01T13:42:24.283Z,98551.81
2022-11-01T13:45:51.800Z,98542.25
2022-11-01T13:49:27.077Z,98551.63
2022-11-01T13:52:36.183Z,98546.03
2022-11-01T13:55:45.275Z,98540.56
2022-11-01T13:58:50.366Z,98540.69
2022-11-01T14:01:55.020Z,98532.63
2022-11-01T14:04:59.987Z,98529.09
2022-11-01T14:08:27.519Z,98535.41
2022-11-01T14:11:50.914Z,98537.03
2022-11-01T14:14:56.994Z,98533.72
2022-11-01T14:18:10.000Z,98527.53
2022-11-01T14:21:29.001Z,98532.13
2022-11-01T14:24:35.838Z,98527.91
2022-11-01T14:27:43.930Z,98537.63
2022-11-01T14:30:53.746Z,98528.22
2022-11-01T14:34:00.347Z,98532.56
2022-11-01T14:37:31.367Z,98543.22
2022-11-01T14:40:42.004Z,98549.28
2022-11-01T14:43:49.711Z,98555.69
2022-11-01T14:47:01.005Z,98560.94
2022-11-01T14:50:17.021Z,98560.06
2022-11-01T14:53:28.343Z,98569.28
2022-11-01T14:56:40.893Z,98572.19
2022-11-01T14:59:45.909Z,98565.88
2022-11-01T15:02:51.229Z,98569.50
2022-11-01T15:05:56.043Z,98564.84
2022-11-01T15:09:03.247Z,98570.16
2022-11-01T15:12:12.168Z,98570.56
2022-11-01T15:15:20.916Z,98569.66
2022-11-01T15:18:26.141Z,98574.66
2022-11-01T15:21:31.598Z,98570.97
2022-11-01T15:24:37.888Z,98565.22
2022-11-01T15:27:46.772Z,98570.84
2022-11-01T15:30:57.656Z,98571.66
2022-11-01T15:34:04.696Z,98575.84
2022-11-01T15:37:22.976Z,98575.63
2022-11-01T15:40:31.197Z,98578.59
2022-11-01T15:43:37.228Z,98570.38
2022-11-01T15:46:43.905Z,98565.97
2022-11-01T15:49:53.059Z,98573.06
2022-11-01T15:53:04.344Z,98575.53
2022-11-01T15:56:15.557Z,98586.47
2022-11-01T15:59:29.076Z,98589.41
2022-11-01T16:02:40.706Z,98588.38
2022-11-01T16:05:49.714Z,98599.06
2022-11-01T16:09:00.129Z,98604.06
2022-11-01T16:12:07.571Z,98600.22
2022-11-01T16:15:24.284Z,98599.00
2022-11-01T16:18:29.311Z,98608.78
2022-11-01T16:21:34.189Z,98611.63
2022-11-01T16:24:38.693Z,98625.28
2022-11-01T16:28:05.727Z,98617.84
2022-11-01T16:31:22.965Z,98624.66
2022-11-01T16:34:29.653Z,98631.47
2022-11-01T16:37:39.547Z,98634.72
2022-11-01T16:40:44.156Z,98629.59
2022-11-01T16:43:50.225Z,98634.28
2022-11-01T16:46:57.477Z,98627.84
2022-11-01T16:50:02.319Z,98645.69
2022-11-01T16:53:12.372Z,98640.03
2022-11-01T16:56:36.254Z,98646.53
2022-11-01T16:59:44.050Z,98647.38
2022-11-01T17:02:50.358Z,98659.50
2022-11-01T17:05:56.477Z,98656.81
2022-11-01T17:09:01.087Z,98659.50
2022-11-01T17:12:06.705Z,98660.56
2022-11-01T17:15:14.447Z,98658.72
2022-11-01T17:18:27.120Z,98667.91
2022-11-01T17:21:40.355Z,98671.66
2022-11-01T17:24:45.269Z,98677.88
2022-11-01T17:27:52.151Z,98672.75
2022-11-01T17:30:59.079Z,98680.78
2022-11-01T17:34:05.119Z,98682.94
2022-11-01T17:37:14.810Z,98682.94
2022-11-01T17:40:22.412Z,98689.44
2022-11-01T17:43:27.142Z,98693.75
2022-11-01T17:46:31.913Z,98689.16
2022-11-01T17:49:38.501Z,98694.28
2022-11-01T17:52:43.468Z,98699.94
2022-11-01T17:55:48.571Z,98697.50
2022-11-01T17:58:54.048Z,98705.59
2022-11-01T18:01:58.999Z,98706.16
2022-11-01T18:05:05.416Z,98700.81
2022-11-01T18:08:17.748Z,98706.19
2022-11-01T18:11:36.450Z,98701.38
2022-11-01T18:18:07.290Z,98715.91
2022-11-01T18:21:22.397Z,98720.47
2022-11-01T18:24:37.195Z,98718.06
2022-11-01T18:27:42.218Z,98713.50
2022-11-01T18:43:23.769Z,98718.91
2022-11-01T18:46:38.590Z,98712.44
2022-11-01T18:49:46.001Z,98718.09
2022-11-01T18:52:51.000Z,98719.47
2022-11-01T18:55:58.304Z,98726.72
2022-11-01T18:59:04.278Z,98718.13
2022-11-01T19:02:16.654Z,98709.78
2022-11-01T19:05:29.661Z,98714.63
2022-11-01T19:08:33.999Z,98718.09
2022-11-01T19:11:40.176Z,98717.56
2022-11-01T19:14:46.687Z,98712.47
2022-11-01T19:17:59.745Z,98721.56
2022-11-01T19:21:16.483Z,98715.91
2022-11-01T19:24:47.133Z,98710.25
2022-11-01T19:27:57.359Z,98726.63
2022-11-01T19:31:09.511Z,98714.81
2022-11-01T19:34:19.134Z,98712.91
2022-11-01T19:37:33.262Z,98716.91
2022-11-01T19:40:41.709Z,98721.19
2022-11-01T19:43:48.386Z,98721.47
2022-11-01T19:46:56.801Z,98721.19
2022-11-01T19:50:01.481Z,98726.25
2022-11-01T19:53:18.655Z,98723.84
2022-11-01T19:56:26.629Z,98731.34
2022-11-01T19:59:34.777Z,98724.34
2022-11-01T20:02:39.867Z,98731.84
2022-11-01T20:05:44.773Z,98725.16
2022-11-01T20:08:52.204Z,98730.25
2022-11-01T20:11:57.112Z,98722.22
2022-11-01T20:15:03.301Z,98722.16
2022-11-01T20:18:08.285Z,98724.56
2022-11-01T20:21:13.324Z,98731.28
2022-11-01T20:24:17.920Z,98748.19
2022-11-01T20:27:23.604Z,98742.81
2022-11-01T20:30:30.028Z,98751.94
2022-11-01T20:33:38.396Z,98747.88
2022-11-01T20:36:46.827Z,98752.16
2022-11-01T20:39:58.886Z,98751.66
2022-11-01T20:43:03.645Z,98755.94
2022-11-01T20:46:11.014Z,98761.31
2022-11-01T20:49:16.264Z,98751.31
2022-11-01T20:52:39.757Z,98753.75
2022-11-01T20:55:44.998Z,98755.59
2022-11-01T20:58:49.835Z,98750.78
2022-11-01T21:01:56.376Z,98751.59
2022-11-01T21:05:05.633Z,98758.84
2022-11-01T21:08:22.826Z,98758.56
2022-11-01T21:11:44.351Z,98759.59
2022-11-01T21:14:54.338Z,98761.19
2022-11-01T21:18:36.395Z,98752.28
2022-11-01T21:21:46.554Z,98754.16
2022-11-01T21:24:51.959Z,98753.31
2022-11-01T21:27:58.443Z,98766.72
2022-11-01T21:31:13.488Z,98770.44
2022-11-01T21:34:27.876Z,98769.88
2022-11-01T21:37:32.823Z,98779.03
2022-11-01T21:40:38.005Z,98778.72
2022-11-01T21:43:45.980Z,98778.72
2022-11-01T21:46:53.117Z,98775.50
2022-11-01T21:49:59.501Z,98778.47
2022-11-01T21:53:04.171Z,98779.03
2022-11-01T21:56:09.562Z,98783.63
2022-11-01T21:59:14.320Z,98786.06
2022-11-01T22:02:19.251Z,98782.06
2022-11-01T22:05:25.232Z,98785.03
2022-11-01T22:08:29.731Z,98781.81
2022-11-01T22:11:34.392Z,98791.22
2022-11-01T22:14:38.995Z,98790.94
2022-11-01T22:17:44.371Z,98786.09
2022-11-01T22:20:52.687Z,98788.47
2022-11-01T22:23:59.843Z,98785.53
2022-11-01T22:27:05.350Z,98779.94
2022-11-01T22:30:11.514Z,98784.75
2022-11-01T22:33:16.107Z,98796.31
2022-11-01T22:36:24.656Z,98789.84
2022-11-01T22:39:31.638Z,98796.50
2022-11-01T22:42:36.192Z,98793.75
2022-11-01T22:45:43.006Z,98800.13
2022-11-01T22:48:47.503Z,98807.13
2022-11-01T22:51:55.848Z,98804.44
2022-11-01T22:55:06.123Z,98808.97
2022-11-01T22:58:34.376Z,98806.28
2022-11-01T23:01:39.470Z,98805.72
2022-11-01T23:04:44.057Z,98805.16
2022-11-01T23:07:51.593Z,98808.00
2022-11-01T23:10:56.378Z,98815.72
2022-11-01T23:14:19.146Z,98810.59
2022-11-01T23:17:26.883Z,98814.28
2022-11-01T23:20:31.605Z,98817.69
2022-11-01T23:23:39.633Z,98817.41
2022-11-01T23:26:45.679Z,98813.13
2022-11-01T23:29:53.722Z,98811.44
2022-11-01T23:32:59.632Z,98816.16
2022-11-01T23:36:04.477Z,98820.19
2022-11-01T23:39:13.502Z,98830.81
2022-11-01T23:42:22.483Z,98824.59
2022-11-01T23:45:31.712Z,98824.00
2022-11-01T23:48:41.586Z,98823.44
2022-11-01T23:51:49.161Z,98819.91
2022-11-01T23:54:56.154Z,98814.00
2022-11-01T23:58:04.113Z,98828.38
